Baker City Municipal Airport
KBKE : now visible

Airfield :











YOU CAN JOIN US ON...

 
LOGIN :

Register | Disclaimer

   EN    FR    IT 

 









Legend :    VFR   Marginal VFR   IFR   Intensive IFR   Very Intensive IFR
Visi :
Ceiling :
>= 8 km
>= 3000ft
5 to 8 km
1000 to 3000 ft
1500m to 5 km
500 to 1000 ft
800 to 1500m
200 to 500 ft
< 800m
< 200 ft
Symbols :   Thunderstorms  Fog  Heavy snow  Heavy precipitations  Wind > 20 kt







- Airport Elevation : 3373 ft


KBKE - Baker City Municipal

CURRENT METAR :
  • 210153Z AUTO 34006KT 10SM BKN110 12/07 A3007 RMK AO2 SLP182 T01170067

EXPIRED METARs :
  • 210053Z AUTO 33010KT 10SM FEW120 14/07 A3006 RMK AO2 SLP178 T01390067
  • 202353Z AUTO 33010KT 10SM FEW075 OVC110 16/07 A3006 RMK AO2 SLP175 T01610067 10172 20144 53005

TAF KBKE
Valid from the 21 at 00:00 until the 22 at 00:00 UTC


202326Z 2100/2124 32010G20KT P6SM BKN050 OVC070
FM210300 30006KT P6SM SCT050
FM211100 VRB03KT P6SM VCFG SCT150
FM211800 30007KT P6SM SCT150
No reported NOTAMs for that airfield.



MET'MAP, your aeronautical weather chart ! - Copyright ORBIFLY December 2007 - Disclaimer

ORBIFLY MET'MAP TEAM :

Programming & Development : Alexandra Zaïnal
Concept & Development : Baudouin d'Aumeries
Co-Development & Prog : Marc-Olivier Méhu
Technical & hardware support : Manuel Goepfert

Contact : metmap@orbifly.com




SOURCES & CREDITS :

   NOAA       Earth
Advisory